KSWO/SWO METAR and TAF weather

Enter ICAO airport designator
Station Type Date Time Source
KSWO METAR 2018/12/15 19:53 UTC NOAA

KSWO 151953Z 00000KT 10SM CLR 13/M09 A3015 RMK AO2 SLP209 T01281094 $


Station Type Date Time Source
KSWO Decoded METAR 2018/12/15 19:53 UTC NOAA

STILLWATER REGIONAL AIRPORT, OK, United States (KSWO) 36-10N 97-05W 290M
Dec 15, 2018 - 02:53 PM EST / 2018.12.15 1953 UTC
Wind: Calm:0
Visibility: 10 mile(s):0
Sky conditions: clear
Temperature: 55.0 F (12.8 C)
Dew Point: 15.1 F (-9.4 C)
Relative Humidity: 20%
Pressure (altimeter): 30.15 in. Hg (1020 hPa)
ob: KSWO 151953Z 00000KT 10SM CLR 13/M09 A3015 RMK AO2 SLP209 T01281094
cycle: 20

Station Type Date Time Source
KSWO TAF UTC NOAA

Error!


Example: see airport list